Time;durP1;ratioP1;P1;durP2;ratioP2;P2;SDS_P1;SDS_P2;PMS_P1;PMS_P2;Temp;Humidity;BMP_temperature;BMP_pressure;BME280_temperature;BME280_humidity;BME280_pressure;Samples;Min_cycle;Max_cycle;Signal;HPM_P1;HPM_P2
2022/11/18 00:01:09;;;;;;;4.57;4.07;;;7.50;99.90;;;;;;5073109;28;20607;-70
2022/11/18 00:03:35;;;;;;;6.50;4.17;;;7.50;99.90;;;;;;5074737;28;20173;-70
2022/11/18 00:06:01;;;;;;;6.87;4.30;;;7.40;99.90;;;;;;5074235;28;20178;-70
2022/11/18 00:08:27;;;;;;;7.13;4.40;;;7.30;99.90;;;;;;5074262;28;20209;-70
2022/11/18 00:10:53;;;;;;;6.67;4.73;;;7.30;99.90;;;;;;5074225;28;20177;-70
2022/11/18 00:16:06;;;;;;;4.83;3.93;;;7.10;99.90;;;;;;5074996;28;20552;-70
2022/11/18 00:18:32;;;;;;;10.67;4.60;;;7.10;99.90;;;;;;5074473;28;20190;-70
2022/11/18 00:21:09;;;;;;;10.13;4.33;;;7.00;99.90;;;;;;5074465;28;20242;-70
2022/11/18 00:23:35;;;;;;;9.00;4.40;;;6.90;99.90;;;;;;5074605;28;20498;-70
2022/11/18 00:26:13;;;;;;;5.37;4.13;;;6.90;99.90;;;;;;5074010;28;20166;-70
2022/11/18 00:28:39;;;;;;;5.30;4.00;;;6.80;99.90;;;;;;5074239;28;20197;-70
2022/11/18 00:31:08;;;;;;;5.03;4.13;;;6.80;99.90;;;;;;5073940;28;20174;-71
2022/11/18 00:33:35;;;;;;;5.00;4.37;;;6.80;99.90;;;;;;5072674;28;20201;-70
2022/11/18 00:36:02;;;;;;;4.90;4.30;;;6.80;99.90;;;;;;5074066;28;20169;-71
2022/11/18 00:38:28;;;;;;;4.77;3.90;;;6.80;99.90;;;;;;5073944;28;20198;-70
2022/11/18 00:41:04;;;;;;;4.33;3.93;;;6.80;99.90;;;;;;5073557;28;20177;-71
2022/11/18 00:43:30;;;;;;;5.63;4.20;;;6.80;99.90;;;;;;5073652;28;20185;-71
2022/11/18 00:45:56;;;;;;;4.67;3.93;;;6.80;99.90;;;;;;5073876;28;20182;-71
2022/11/18 00:48:22;;;;;;;5.10;3.80;;;6.90;99.90;;;;;;5073732;28;20730;-71
2022/11/18 00:50:53;;;;;;;5.33;3.87;;;6.90;99.90;;;;;;5073725;28;20170;-71
2022/11/18 00:53:20;;;;;;;5.37;4.50;;;6.90;99.90;;;;;;5072295;28;20643;-70
2022/11/18 00:55:46;;;;;;;4.47;4.07;;;6.90;99.90;;;;;;5072193;28;20174;-70
2022/11/18 00:58:13;;;;;;;7.67;4.70;;;6.90;99.90;;;;;;5073608;28;20198;-70
2022/11/18 01:00:41;;;;;;;8.03;5.03;;;6.90;99.90;;;;;;5073769;28;20151;-71
2022/11/18 01:03:07;;;;;;;9.00;4.20;;;6.90;99.90;;;;;;5072344;28;20177;-70
2022/11/18 01:05:33;;;;;;;5.50;4.10;;;6.80;99.90;;;;;;5073710;28;20177;-70
2022/11/18 01:07:59;;;;;;;5.60;4.17;;;6.80;99.90;;;;;;5073424;28;20205;-71
2022/11/18 01:10:25;;;;;;;6.23;4.20;;;6.90;99.90;;;;;;5073449;28;20178;-71
2022/11/18 01:15:39;;;;;;;7.97;4.40;;;6.80;99.90;;;;;;5073876;28;20168;-70
2022/11/18 01:18:05;;;;;;;5.00;4.50;;;6.90;99.90;;;;;;5073378;28;20272;-71
2022/11/18 01:20:32;;;;;;;6.97;4.43;;;6.90;99.90;;;;;;5073293;28;20612;-71
2022/11/18 01:22:57;;;;;;;5.23;4.53;;;6.90;99.90;;;;;;5073663;28;20173;-71
2022/11/18 01:25:23;;;;;;;6.10;4.43;;;6.80;99.90;;;;;;5073849;28;20208;-71
2022/11/18 01:27:49;;;;;;;4.93;4.47;;;6.80;99.90;;;;;;5073135;28;20663;-71
2022/11/18 01:30:15;;;;;;;7.50;4.73;;;6.80;99.90;;;;;;5073240;28;20201;-71
2022/11/18 01:32:42;;;;;;;5.73;4.27;;;6.90;99.90;;;;;;5073531;28;20207;-71
2022/11/18 01:35:09;;;;;;;6.73;4.73;;;6.90;99.90;;;;;;5073410;28;20170;-71
2022/11/18 01:37:35;;;;;;;5.37;4.83;;;6.90;99.90;;;;;;5073589;28;20182;-71
2022/11/18 01:40:01;;;;;;;7.10;4.57;;;6.80;99.90;;;;;;5073152;28;20663;-71
2022/11/18 01:42:27;;;;;;;5.27;4.40;;;6.70;99.90;;;;;;5072985;28;20185;-71
2022/11/18 01:44:58;;;;;;;7.13;4.23;;;6.70;99.90;;;;;;5073103;28;20174;-71
2022/11/18 01:47:35;;;;;;;5.53;4.40;;;6.60;99.90;;;;;;5071766;28;20619;-71
2022/11/18 01:50:02;;;;;;;4.50;4.07;;;6.60;99.90;;;;;;5073026;28;20173;-71
2022/11/18 01:52:29;;;;;;;5.10;4.47;;;6.60;99.90;;;;;;5072988;28;20581;-71
2022/11/18 01:55:00;;;;;;;4.73;4.33;;;6.50;99.90;;;;;;5073345;28;20162;-71
2022/11/18 01:57:29;;;;;;;5.10;4.60;;;6.50;99.90;;;;;;5071574;28;20166;-71
2022/11/18 01:59:58;;;;;;;6.80;5.03;;;6.50;99.90;;;;;;5074658;28;20211;-71
2022/11/18 02:02:25;;;;;;;5.93;4.53;;;6.50;99.90;;;;;;5076850;28;20166;-71
2022/11/18 02:04:54;;;;;;;4.70;4.17;;;6.60;99.90;;;;;;5077021;28;20173;-71
2022/11/18 02:07:21;;;;;;;6.63;5.00;;;6.60;99.90;;;;;;5075417;28;20689;-71
2022/11/18 02:09:47;;;;;;;5.03;3.90;;;6.50;99.90;;;;;;5076648;28;20207;-72
2022/11/18 02:12:13;;;;;;;6.53;4.70;;;6.60;99.90;;;;;;5075042;28;20209;-71
2022/11/18 02:14:42;;;;;;;6.70;4.20;;;6.60;99.90;;;;;;5076530;28;20634;-71
2022/11/18 02:17:26;;;;;;;8.07;4.73;;;6.60;99.90;;;;;;5076792;28;20649;-71
2022/11/18 02:20:19;;;;;;;6.73;4.13;;;6.50;99.90;;;;;;5075095;28;20649;-71
2022/11/18 02:22:51;;;;;;;6.60;4.50;;;6.50;99.90;;;;;;5076421;28;20174;-71
2022/11/18 02:25:38;;;;;;;6.60;4.80;;;6.50;99.90;;;;;;5076255;28;20177;-71
2022/11/18 02:28:34;;;;;;;5.10;4.53;;;6.50;99.90;;;;;;5076342;28;20239;-71
2022/11/18 02:31:11;;;;;;;8.60;4.93;;;6.50;99.90;;;;;;5076476;28;20454;-71
2022/11/18 02:34:13;;;;;;;7.07;5.57;;;6.40;99.90;;;;;;5074938;28;20200;-70
2022/11/18 02:36:55;;;;;;;7.23;5.07;;;6.30;99.90;;;;;;5076356;28;20166;-70
2022/11/18 02:39:32;;;;;;;6.67;4.60;;;6.40;99.90;;;;;;5075983;28;20270;-70
2022/11/18 02:42:00;;;;;;;7.30;4.90;;;6.40;99.90;;;;;;5076428;28;20158;-70
2022/11/18 02:44:29;;;;;;;7.73;4.43;;;6.50;99.90;;;;;;5076384;28;20170;-70
2022/11/18 02:47:00;;;;;;;7.77;5.07;;;6.50;99.90;;;;;;5074827;28;20180;-70
2022/11/18 02:49:36;;;;;;;5.20;4.70;;;6.50;99.90;;;;;;5076080;28;20584;-70
2022/11/18 02:52:05;;;;;;;10.67;5.17;;;6.60;99.90;;;;;;5075996;28;20635;-71
2022/11/18 02:54:32;;;;;;;6.07;5.47;;;6.60;99.90;;;;;;5074571;28;20608;-71
2022/11/18 02:57:00;;;;;;;7.27;5.40;;;6.60;99.90;;;;;;5075572;28;20165;-71
2022/11/18 02:59:27;;;;;;;7.40;5.27;;;6.60;99.90;;;;;;5075602;28;20192;-71
2022/11/18 03:01:53;;;;;;;6.50;5.70;;;6.60;99.90;;;;;;5076048;28;20181;-71
2022/11/18 03:04:21;;;;;;;9.10;5.37;;;6.70;99.90;;;;;;5075582;28;20170;-71
2022/11/18 03:07:33;;;;;;;9.03;5.70;;;6.70;99.90;;;;;;5074364;28;20181;-71
2022/11/18 03:10:01;;;;;;;5.83;5.27;;;6.70;99.90;;;;;;5076056;28;20158;-70
2022/11/18 03:12:41;;;;;;;9.07;4.83;;;6.60;99.90;;;;;;5073898;28;20240;-71
2022/11/18 03:15:19;;;;;;;8.30;5.17;;;6.60;99.90;;;;;;5074210;28;20257;-71
2022/11/18 03:17:51;;;;;;;9.17;5.67;;;6.50;99.90;;;;;;5075362;28;20193;-70
2022/11/18 03:20:32;;;;;;;8.03;4.93;;;6.50;99.90;;;;;;5074376;28;20226;-70
2022/11/18 03:23:15;;;;;;;8.00;5.00;;;6.50;99.90;;;;;;5074009;28;20188;-70
2022/11/18 03:25:48;;;;;;;6.13;5.00;;;6.50;99.90;;;;;;5075496;28;20162;-71
2022/11/18 03:28:30;;;;;;;7.80;5.40;;;6.60;99.90;;;;;;5075362;28;20190;-70
2022/11/18 03:31:13;;;;;;;5.60;4.70;;;6.60;99.90;;;;;;5075148;28;20241;-70
2022/11/18 03:33:46;;;;;;;9.30;5.97;;;6.70;99.90;;;;;;5073654;28;20556;-70
2022/11/18 03:36:14;;;;;;;8.80;4.93;;;6.70;99.90;;;;;;5075249;28;20150;-71
2022/11/18 03:38:49;;;;;;;10.17;5.57;;;6.70;99.90;;;;;;5063912;28;20213;-70
2022/11/18 03:41:17;;;;;;;11.60;5.10;;;6.70;99.90;;;;;;5053601;28;20226;-70
2022/11/18 03:43:53;;;;;;;5.83;4.80;;;6.70;99.90;;;;;;5053781;28;20587;-71
2022/11/18 03:46:41;;;;;;;8.97;5.30;;;6.70;99.90;;;;;;5054887;28;20187;-70
2022/11/18 03:49:12;;;;;;;7.87;5.47;;;6.70;99.90;;;;;;5055560;28;20655;-70
2022/11/18 03:51:46;;;;;;;9.20;5.40;;;6.70;99.90;;;;;;5053592;28;20221;-71
2022/11/18 03:54:17;;;;;;;6.43;5.43;;;6.70;99.90;;;;;;5055186;28;20242;-70
2022/11/18 03:56:51;;;;;;;8.13;6.13;;;6.70;99.90;;;;;;5053228;28;20703;-70
2022/11/18 03:59:44;;;;;;;7.47;5.10;;;6.70;99.90;;;;;;5054530;28;20190;-70
2022/11/18 04:02:17;;;;;;;5.70;5.20;;;6.70;99.90;;;;;;5053547;28;20222;-70
2022/11/18 04:04:45;;;;;;;7.13;5.50;;;6.80;99.90;;;;;;5053230;28;20229;-70
2022/11/18 04:07:30;;;;;;;7.37;5.30;;;6.80;99.90;;;;;;5054348;28;20181;-70
2022/11/18 04:10:01;;;;;;;11.40;5.80;;;6.80;99.90;;;;;;5074499;28;20673;-70
2022/11/18 04:12:32;;;;;;;12.43;6.10;;;6.80;99.90;;;;;;5074228;28;20229;-70
2022/11/18 04:14:58;;;;;;;8.03;5.90;;;6.90;99.90;;;;;;5074299;28;20158;-70
2022/11/18 04:17:27;;;;;;;6.90;6.17;;;6.90;99.90;;;;;;5072915;28;20174;-70
2022/11/18 04:19:54;;;;;;;8.90;6.37;;;6.90;99.90;;;;;;5074529;28;20174;-70
2022/11/18 04:22:20;;;;;;;9.33;6.40;;;6.90;99.90;;;;;;5073806;28;20186;-70
2022/11/18 04:24:46;;;;;;;12.23;6.57;;;6.90;99.90;;;;;;5074586;28;20170;-70
2022/11/18 04:27:12;;;;;;;12.43;6.73;;;6.90;99.90;;;;;;5073948;28;20238;-70
2022/11/18 04:29:38;;;;;;;8.47;5.90;;;6.90;99.90;;;;;;5073859;28;20181;-70
2022/11/18 04:32:04;;;;;;;10.00;6.30;;;6.90;99.90;;;;;;5074379;28;20197;-70
2022/11/18 04:34:30;;;;;;;11.43;6.60;;;6.90;99.90;;;;;;5072688;28;20174;-70
2022/11/18 04:36:56;;;;;;;9.07;6.50;;;6.80;99.90;;;;;;5073008;28;20216;-70
2022/11/18 04:39:22;;;;;;;9.20;6.40;;;6.90;99.90;;;;;;5073998;28;20200;-70
2022/11/18 04:41:54;;;;;;;12.57;6.53;;;6.80;99.90;;;;;;5072835;28;20174;-70
2022/11/18 04:44:24;;;;;;;8.93;6.97;;;6.80;99.90;;;;;;5074157;28;20170;-71
2022/11/18 04:46:51;;;;;;;12.20;6.73;;;6.80;99.90;;;;;;5072853;28;20182;-70
2022/11/18 04:49:16;;;;;;;10.17;6.67;;;6.90;99.90;;;;;;5073786;28;20193;-70
2022/11/18 04:51:43;;;;;;;9.23;6.60;;;6.90;99.90;;;;;;5074072;28;20189;-70
2022/11/18 04:54:09;;;;;;;12.20;7.27;;;6.90;99.90;;;;;;5073994;28;20177;-70
2022/11/18 04:56:35;;;;;;;8.53;6.73;;;7.00;99.90;;;;;;5074600;28;20583;-70
2022/11/18 04:59:02;;;;;;;11.80;7.40;;;7.00;99.90;;;;;;5073475;28;20763;-69
2022/11/18 05:01:28;;;;;;;10.30;7.03;;;7.00;99.90;;;;;;5073820;28;20162;-69
2022/11/18 05:03:54;;;;;;;10.70;7.47;;;7.00;99.90;;;;;;5073490;28;20253;-68
2022/11/18 05:06:21;;;;;;;9.70;7.50;;;7.00;99.90;;;;;;5072200;28;20705;-68
2022/11/18 05:08:46;;;;;;;15.00;7.63;;;7.00;99.90;;;;;;5072093;28;20254;-68
2022/11/18 05:13:56;;;;;;;11.23;7.37;;;6.90;99.90;;;;;;5073677;28;20187;-69
2022/11/18 05:16:22;;;;;;;9.87;7.50;;;7.00;99.90;;;;;;5073553;28;20178;-70
2022/11/18 05:18:47;;;;;;;13.33;7.00;;;6.90;99.90;;;;;;5071951;28;20198;-68
2022/11/18 05:21:13;;;;;;;11.33;6.60;;;6.80;99.90;;;;;;5073214;28;20173;-68
2022/11/18 05:23:39;;;;;;;10.07;6.47;;;6.70;99.90;;;;;;5073333;28;20185;-68
2022/11/18 05:26:06;;;;;;;10.77;7.00;;;6.70;99.90;;;;;;5073092;28;20178;-69
2022/11/18 05:28:32;;;;;;;10.87;6.30;;;6.70;99.90;;;;;;5073115;28;20194;-68
2022/11/18 05:30:57;;;;;;;7.97;6.83;;;6.80;99.90;;;;;;5072091;28;20185;-68
2022/11/18 05:33:24;;;;;;;13.53;7.17;;;6.80;99.90;;;;;;5073529;28;20761;-68
2022/11/18 05:35:50;;;;;;;12.13;7.10;;;6.80;99.90;;;;;;5075954;28;20189;-68
2022/11/18 05:38:16;;;;;;;9.30;6.60;;;6.90;99.90;;;;;;5077004;28;20201;-68
2022/11/18 05:40:42;;;;;;;8.90;6.83;;;6.90;99.90;;;;;;5077591;28;20227;-69
2022/11/18 05:43:11;;;;;;;10.60;6.73;;;6.90;99.90;;;;;;5076977;28;20212;-69
2022/11/18 05:45:37;;;;;;;11.30;7.63;;;7.00;99.90;;;;;;5077039;28;20174;-69
2022/11/18 05:48:04;;;;;;;8.77;6.57;;;7.00;99.90;;;;;;5076862;28;20607;-68
2022/11/18 05:50:30;;;;;;;9.10;7.20;;;7.00;99.90;;;;;;5076899;28;20182;-68
2022/11/18 05:52:57;;;;;;;10.10;6.50;;;7.00;99.90;;;;;;5076799;28;20206;-68
2022/11/18 05:55:28;;;;;;;11.30;7.50;;;7.00;99.90;;;;;;5076865;28;20654;-68
2022/11/18 05:57:53;;;;;;;8.90;6.83;;;7.10;99.90;;;;;;5076496;28;20198;-68
2022/11/18 06:00:19;;;;;;;9.60;6.97;;;7.10;99.90;;;;;;5075494;28;20555;-68
2022/11/18 06:02:48;;;;;;;12.23;6.77;;;7.10;99.90;;;;;;5076849;28;20185;-68
2022/11/18 06:05:16;;;;;;;10.17;6.47;;;7.10;99.90;;;;;;5076506;28;20198;-68
2022/11/18 06:07:43;;;;;;;10.73;6.40;;;7.10;99.90;;;;;;5075172;28;20225;-68
2022/11/18 06:10:15;;;;;;;19.33;6.90;;;7.10;99.90;;;;;;5076486;28;20749;-68
2022/11/18 06:12:43;;;;;;;10.67;6.13;;;7.20;99.90;;;;;;5076493;28;20221;-68
2022/11/18 06:15:13;;;;;;;11.50;6.80;;;7.20;99.90;;;;;;5077160;28;20170;-68
2022/11/18 06:17:47;;;;;;;8.30;6.17;;;7.20;99.90;;;;;;5076882;28;20193;-68
2022/11/18 06:20:15;;;;;;;9.73;7.00;;;7.30;99.90;;;;;;5076548;28;20189;-68
2022/11/18 06:22:41;;;;;;;10.10;6.60;;;7.30;99.90;;;;;;5076163;28;20607;-68
2022/11/18 06:25:07;;;;;;;12.67;7.47;;;7.30;99.90;;;;;;5074892;28;20193;-68
2022/11/18 06:27:33;;;;;;;8.80;6.57;;;7.30;99.90;;;;;;5076087;28;20713;-68
2022/11/18 06:29:59;;;;;;;11.77;6.53;;;7.30;99.90;;;;;;5076376;28;20639;-68
2022/11/18 06:32:25;;;;;;;9.07;6.97;;;7.30;99.90;;;;;;5076051;28;20198;-68
2022/11/18 06:34:50;;;;;;;8.43;7.07;;;7.40;99.90;;;;;;5076367;28;20260;-68
2022/11/18 06:37:21;;;;;;;8.97;7.17;;;7.40;99.90;;;;;;5075984;28;20173;-68
2022/11/18 06:39:47;;;;;;;8.47;6.50;;;7.40;99.90;;;;;;5074835;28;20186;-68
2022/11/18 06:45:03;;;;;;;10.73;6.67;;;7.50;99.90;;;;;;5083849;28;20193;-67
2022/11/18 06:47:29;;;;;;;9.90;6.73;;;7.40;99.90;;;;;;5075772;28;20178;-71
2022/11/18 06:49:55;;;;;;;8.07;6.53;;;7.40;99.90;;;;;;5075819;28;20651;-71
2022/11/18 06:52:22;;;;;;;11.43;9.20;;;7.40;99.90;;;;;;5075595;28;20223;-71
2022/11/18 06:54:47;;;;;;;16.63;11.17;;;7.40;99.90;;;;;;5075788;28;20548;-71
2022/11/18 06:57:13;;;;;;;18.47;13.60;;;7.50;99.90;;;;;;5075496;28;20185;-71
2022/11/18 06:59:39;;;;;;;13.67;10.53;;;7.50;99.90;;;;;;5075701;28;20174;-71
2022/11/18 07:02:05;;;;;;;12.70;8.47;;;7.50;99.90;;;;;;5075542;28;20209;-71
2022/11/18 07:04:32;;;;;;;11.23;8.87;;;7.50;99.90;;;;;;5075770;28;20182;-71
2022/11/18 07:06:58;;;;;;;13.27;10.27;;;7.50;99.90;;;;;;5075509;28;20256;-71
2022/11/18 07:09:23;;;;;;;14.60;9.70;;;7.50;99.90;;;;;;5075390;28;20229;-71
2022/11/18 07:11:49;;;;;;;12.57;8.60;;;7.50;99.90;;;;;;5075326;28;20223;-69
2022/11/18 07:14:15;;;;;;;9.10;7.27;;;7.50;99.90;;;;;;5075422;28;20178;-69
2022/11/18 07:16:41;;;;;;;9.30;7.03;;;7.50;99.90;;;;;;5075237;28;20608;-69
2022/11/18 07:19:12;;;;;;;10.07;7.13;;;7.60;99.90;;;;;;5075077;28;20221;-69
2022/11/18 07:21:39;;;;;;;9.23;7.27;;;7.60;99.90;;;;;;5075129;28;20639;-68
2022/11/18 07:24:07;;;;;;;10.80;8.80;;;7.60;99.90;;;;;;5075063;28;20619;-67
2022/11/18 07:26:34;;;;;;;13.07;9.23;;;7.60;99.90;;;;;;5074264;28;20188;-68
2022/11/18 07:29:00;;;;;;;11.47;8.00;;;7.60;99.90;;;;;;5073522;28;20662;-68
2022/11/18 07:31:26;;;;;;;9.47;7.80;;;7.60;99.90;;;;;;5074997;28;20546;-72
2022/11/18 07:33:55;;;;;;;11.67;7.80;;;7.60;99.90;;;;;;5075020;28;20209;-72
2022/11/18 07:36:26;;;;;;;11.73;7.83;;;7.60;99.90;;;;;;5075135;28;20174;-72
2022/11/18 07:38:53;;;;;;;11.23;7.67;;;7.50;99.90;;;;;;5074632;28;20701;-72
2022/11/18 07:41:24;;;;;;;14.70;8.03;;;7.50;99.90;;;;;;5074608;28;20181;-72
2022/11/18 07:43:51;;;;;;;11.53;7.43;;;7.50;99.90;;;;;;5074992;28;20185;-72
2022/11/18 07:46:20;;;;;;;13.80;8.17;;;7.50;99.90;;;;;;5074601;28;20227;-72
2022/11/18 07:48:48;;;;;;;9.20;7.77;;;7.50;99.90;;;;;;5074680;28;20202;-72
2022/11/18 07:51:16;;;;;;;11.47;7.17;;;7.50;99.90;;;;;;5074528;28;20185;-72
2022/11/18 07:53:43;;;;;;;12.03;7.90;;;7.50;99.90;;;;;;5073142;28;20292;-72
2022/11/18 07:56:08;;;;;;;13.93;8.47;;;7.50;99.90;;;;;;5073551;28;20169;-73
2022/11/18 07:58:35;;;;;;;14.23;8.30;;;7.50;99.90;;;;;;5074368;28;20622;-72
2022/11/18 08:01:17;;;;;;;16.00;9.10;;;7.60;99.90;;;;;;5073148;28;20269;-77
2022/11/18 08:03:44;;;;;;;13.33;9.90;;;7.60;99.90;;;;;;5074331;28;20227;-72
2022/11/18 08:06:12;;;;;;;20.90;15.93;;;7.60;99.90;;;;;;5072985;28;20280;-72
2022/11/18 08:08:38;;;;;;;27.77;16.67;;;7.60;99.90;;;;;;5073034;28;20756;-72
2022/11/18 08:11:07;;;;;;;22.53;15.33;;;7.60;99.90;;;;;;5074158;28;20227;-72
2022/11/18 08:13:34;;;;;;;19.67;14.27;;;7.60;99.90;;;;;;5074016;28;20210;-71
2022/11/18 08:16:00;;;;;;;14.50;11.50;;;7.60;99.90;;;;;;5074377;28;20170;-71
2022/11/18 08:18:28;;;;;;;16.97;11.70;;;7.60;99.90;;;;;;5074231;28;20205;-71
2022/11/18 08:20:54;;;;;;;14.57;9.93;;;7.60;99.90;;;;;;5072872;28;20193;-71
2022/11/18 08:23:19;;;;;;;11.10;8.23;;;7.70;99.90;;;;;;5072719;28;20552;-71
2022/11/18 08:25:46;;;;;;;13.73;10.00;;;7.70;99.90;;;;;;5074088;28;20530;-71
2022/11/18 08:28:13;;;;;;;12.33;8.90;;;7.70;99.90;;;;;;5073728;28;20193;-71
2022/11/18 08:30:39;;;;;;;13.53;9.40;;;7.80;99.90;;;;;;5072569;28;20328;-71
2022/11/18 08:33:05;;;;;;;15.20;9.37;;;7.90;99.90;;;;;;5072468;28;20205;-71
2022/11/18 08:35:32;;;;;;;11.53;9.03;;;7.90;99.90;;;;;;5073930;28;20174;-71
2022/11/18 08:37:58;;;;;;;11.33;8.47;;;7.90;99.90;;;;;;5072324;28;20208;-71
2022/11/18 08:40:24;;;;;;;13.20;9.13;;;7.90;99.90;;;;;;5072738;28;20533;-71
2022/11/18 08:42:50;;;;;;;10.30;7.40;;;7.90;99.90;;;;;;5073712;28;20174;-71
2022/11/18 08:45:16;;;;;;;9.80;7.73;;;8.00;99.90;;;;;;5073574;28;20544;-71
2022/11/18 08:47:42;;;;;;;12.40;7.57;;;8.00;99.90;;;;;;5072302;28;20297;-71
2022/11/18 08:50:10;;;;;;;10.80;7.53;;;8.00;99.90;;;;;;5072294;28;20170;-71
2022/11/18 08:52:36;;;;;;;8.83;7.00;;;8.00;99.90;;;;;;5073669;28;20642;-71
2022/11/18 08:55:03;;;;;;;12.53;8.00;;;8.10;99.90;;;;;;5073489;28;20174;-71
2022/11/18 08:57:29;;;;;;;11.70;7.83;;;8.10;99.90;;;;;;5072029;28;20176;-71
2022/11/18 08:59:54;;;;;;;9.50;7.93;;;8.20;99.90;;;;;;5072129;28;20205;-71
2022/11/18 09:02:22;;;;;;;8.97;7.27;;;8.20;99.90;;;;;;5072111;28;20205;-72
2022/11/18 09:04:52;;;;;;;10.97;7.50;;;8.30;99.90;;;;;;5073739;28;20182;-66
2022/11/18 09:07:20;;;;;;;11.93;8.67;;;8.30;99.90;;;;;;5072804;28;20181;-67
2022/11/18 09:09:46;;;;;;;15.43;11.27;;;8.30;99.90;;;;;;5073990;28;20642;-69
2022/11/18 09:12:17;;;;;;;17.27;13.07;;;8.30;99.90;;;;;;5073256;28;20206;-70
2022/11/18 09:14:44;;;;;;;17.07;12.93;;;8.30;99.90;;;;;;5072367;28;20163;-70
2022/11/18 09:17:17;;;;;;;17.03;11.50;;;8.30;99.90;;;;;;5071992;28;20273;-72
2022/11/18 09:19:42;;;;;;;12.70;9.30;;;8.40;99.90;;;;;;5073570;28;20157;-72
2022/11/18 09:22:16;;;;;;;13.27;8.60;;;8.40;99.90;;;;;;5071813;28;20178;-72
2022/11/18 09:24:43;;;;;;;11.27;7.40;;;8.50;99.90;;;;;;5073582;28;20185;-72
2022/11/18 09:27:13;;;;;;;10.00;7.90;;;8.50;99.90;;;;;;5071804;28;20177;-72
2022/11/18 09:29:39;;;;;;;12.63;8.17;;;8.60;99.90;;;;;;5071886;28;20178;-71
2022/11/18 09:32:08;;;;;;;9.93;7.17;;;8.60;99.90;;;;;;5071865;28;20576;-71
2022/11/18 09:34:45;;;;;;;8.57;7.67;;;8.60;99.90;;;;;;5055470;28;20208;-72
2022/11/18 09:37:17;;;;;;;12.87;7.90;;;8.60;99.90;;;;;;5071963;28;20169;-71
2022/11/18 09:39:47;;;;;;;11.70;8.07;;;8.70;99.90;;;;;;5071844;28;20533;-72
2022/11/18 09:42:49;;;;;;;13.97;9.13;;;8.70;99.90;;;;;;5071791;28;20170;-72
2022/11/18 09:45:27;;;;;;;14.70;9.27;;;8.80;99.90;;;;;;5073054;28;20171;-68
2022/11/18 09:47:57;;;;;;;12.27;8.83;;;8.80;99.90;;;;;;5071971;28;20243;-67
2022/11/18 09:50:23;;;;;;;12.60;9.03;;;8.80;99.90;;;;;;5073358;28;20241;-68
2022/11/18 09:52:52;;;;;;;13.37;8.90;;;8.80;99.90;;;;;;5071839;28;20284;-69
2022/11/18 09:55:18;;;;;;;16.43;8.97;;;8.90;99.90;;;;;;5072854;28;20192;-69
2022/11/18 09:57:45;;;;;;;15.37;9.43;;;8.90;99.90;;;;;;5072740;28;20190;-69
2022/11/18 10:00:19;;;;;;;12.17;8.93;;;8.90;99.90;;;;;;5071601;28;20692;-69
2022/11/18 10:03:01;;;;;;;14.90;9.17;;;8.80;99.90;;;;;;5071789;28;20180;-68
2022/11/18 10:05:31;;;;;;;10.70;8.10;;;8.80;99.90;;;;;;5071531;28;20177;-68
2022/11/18 10:08:22;;;;;;;13.90;8.80;;;8.90;99.90;;;;;;5072278;28;20248;-72
2022/11/18 10:10:57;;;;;;;14.80;9.80;;;8.90;99.90;;;;;;5072508;28;20204;-71
2022/11/18 10:13:54;;;;;;;11.33;9.17;;;8.90;99.90;;;;;;5072546;28;20205;-71
2022/11/18 10:16:46;;;;;;;17.47;11.90;;;9.00;99.90;;;;;;5073321;28;20162;-71
2022/11/18 10:19:23;;;;;;;17.90;11.73;;;9.10;99.90;;;;;;5072818;28;20250;-71
2022/11/18 10:22:07;;;;;;;18.60;11.67;;;9.10;99.90;;;;;;5076592;28;20619;-71
2022/11/18 10:24:40;;;;;;;23.30;12.70;;;9.00;99.90;;;;;;5076330;28;20501;-71
2022/11/18 10:27:10;;;;;;;19.97;13.60;;;9.00;99.90;;;;;;5076273;28;20276;-71
2022/11/18 10:29:36;;;;;;;23.00;13.97;;;9.00;99.90;;;;;;5074829;28;20240;-71
2022/11/18 10:32:14;;;;;;;21.23;13.17;;;9.00;99.90;;;;;;5074736;28;20201;-71
2022/11/18 10:34:55;;;;;;;26.00;14.27;;;9.10;99.90;;;;;;5074900;28;20166;-72
2022/11/18 10:37:30;;;;;;;23.43;13.83;;;9.10;99.90;;;;;;5075946;28;20182;-71
2022/11/18 10:40:01;;;;;;;28.30;15.87;;;9.00;99.90;;;;;;5075887;28;20162;-70
2022/11/18 10:42:45;;;;;;;25.83;14.83;;;9.00;99.90;;;;;;5075714;28;20215;-70
2022/11/18 10:45:30;;;;;;;24.90;14.20;;;9.10;99.90;;;;;;5075849;28;20173;-78
2022/11/18 10:48:14;;;;;;;28.67;15.83;;;9.10;99.90;;;;;;5074684;28;20761;-71
2022/11/18 10:50:42;;;;;;;30.37;15.33;;;9.20;99.90;;;;;;5075558;28;20239;-66
2022/11/18 10:53:30;;;;;;;24.27;14.73;;;9.10;99.90;;;;;;5075902;28;20247;-66
2022/11/18 10:56:07;;;;;;;25.57;15.67;;;9.20;99.90;;;;;;5075578;28;20707;-66
2022/11/18 10:58:41;;;;;;;26.83;16.73;;;9.20;99.90;;;;;;5075217;28;20607;-66
2022/11/18 11:01:19;;;;;;;26.77;17.33;;;9.20;99.90;;;;;;5075777;28;20158;-66
2022/11/18 11:04:35;;;;;;;26.30;15.33;;;9.20;99.90;;;;;;5074177;28;20178;-66
2022/11/18 11:07:31;;;;;;;28.33;16.40;;;9.20;99.90;;;;;;5073547;28;20278;-66
2022/11/18 11:10:08;;;;;;;33.57;17.87;;;9.30;99.90;;;;;;5053438;28;20202;-66
2022/11/18 11:12:57;;;;;;;34.43;17.73;;;9.20;99.90;;;;;;5054495;28;20304;-66
2022/11/18 11:15:46;;;;;;;31.93;18.60;;;9.30;99.90;;;;;;5055528;28;20167;-66
2022/11/18 11:21:15;;;;;;;31.33;18.67;;;9.30;99.90;;;;;;5055745;28;20170;-66
2022/11/18 11:23:42;;;;;;;36.93;19.07;;;9.40;99.90;;;;;;5055077;28;20257;-66
2022/11/18 11:26:14;;;;;;;30.23;19.03;;;9.50;99.90;;;;;;5053697;28;20661;-66
2022/11/18 11:28:52;;;;;;;32.33;19.60;;;9.30;99.90;;;;;;5055485;28;20252;-66
2022/11/18 11:31:27;;;;;;;32.77;19.30;;;9.40;99.90;;;;;;5054989;28;20245;-66
2022/11/18 11:34:18;;;;;;;34.03;20.57;;;9.50;99.90;;;;;;5055088;28;20666;-66
2022/11/18 11:37:01;;;;;;;34.70;22.20;;;9.60;99.90;;;;;;5054844;28;20604;-66
2022/11/18 11:39:35;;;;;;;33.53;20.17;;;9.60;99.90;;;;;;5070872;28;20747;-66
2022/11/18 11:42:22;;;;;;;35.57;19.53;;;9.50;99.90;;;;;;5073320;28;20173;-66
2022/11/18 11:44:57;;;;;;;47.20;21.77;;;9.60;99.90;;;;;;5074928;28;20163;-66
2022/11/18 11:47:48;;;;;;;43.07;21.17;;;9.60;99.90;;;;;;5074804;28;20165;-66
2022/11/18 11:50:52;;;;;;;37.30;21.93;;;9.60;99.90;;;;;;5073313;28;20170;-66
2022/11/18 11:53:46;;;;;;;32.30;20.27;;;9.60;99.90;;;;;;5074733;28;20238;-66
2022/11/18 11:56:31;;;;;;;38.70;21.00;;;9.70;99.90;;;;;;5064307;28;20273;-66
2022/11/18 11:59:15;;;;;;;33.97;20.50;;;9.80;99.90;;;;;;5073021;28;20190;-66
2022/11/18 12:01:59;;;;;;;31.77;19.87;;;9.80;99.90;;;;;;5074280;28;20169;-66
2022/11/18 12:04:55;;;;;;;31.77;19.57;;;9.90;99.90;;;;;;5073119;28;20239;-66
2022/11/18 12:07:41;;;;;;;33.33;20.20;;;10.00;99.90;;;;;;5074468;28;20168;-66
2022/11/18 12:10:25;;;;;;;38.97;20.37;;;10.00;99.90;;;;;;5072941;28;20174;-66
2022/11/18 12:13:12;;;;;;;33.00;18.97;;;9.90;99.90;;;;;;5072565;28;20213;-66
2022/11/18 12:15:53;;;;;;;25.50;17.47;;;9.80;99.90;;;;;;5074143;28;20256;-66
2022/11/18 12:18:50;;;;;;;32.87;20.07;;;9.80;99.90;;;;;;5074236;28;20194;-66
2022/11/18 12:21:46;;;;;;;24.73;16.67;;;9.60;99.90;;;;;;5072880;28;20177;-66
2022/11/18 12:24:41;;;;;;;28.53;18.83;;;9.60;99.90;;;;;;5072577;28;20177;-66
2022/11/18 12:27:33;;;;;;;27.07;19.00;;;9.50;99.90;;;;;;5074046;28;20162;-66
2022/11/18 12:30:02;;;;;;;31.57;18.67;;;9.60;99.90;;;;;;5073685;28;20699;-66
2022/11/18 12:32:41;;;;;;;27.37;18.00;;;9.80;99.90;;;;;;5072444;28;20201;-66
2022/11/18 12:35:12;;;;;;;29.17;15.13;;;10.10;99.90;;;;;;5073974;28;20161;-66
2022/11/18 12:37:50;;;;;;;26.27;14.73;;;10.30;99.90;;;;;;5073558;28;20193;-66
2022/11/18 12:40:36;;;;;;;24.13;14.43;;;10.50;99.90;;;;;;5073557;28;20661;-66
2022/11/18 12:45:53;;;;;;;19.27;12.10;;;10.80;99.90;;;;;;5073911;28;20249;-66
2022/11/18 12:48:32;;;;;;;19.50;12.57;;;10.90;99.90;;;;;;5073556;28;20216;-66
2022/11/18 12:51:19;;;;;;;19.00;11.23;;;10.90;99.90;;;;;;5072190;28;20177;-66
2022/11/18 12:53:48;;;;;;;15.83;9.23;;;10.70;99.90;;;;;;5073379;28;20209;-66
2022/11/18 12:56:16;;;;;;;14.17;8.53;;;10.50;99.90;;;;;;5073325;28;20169;-65
2022/11/18 12:59:12;;;;;;;11.00;7.50;;;10.50;99.90;;;;;;5073191;28;20194;-65
2022/11/18 13:01:37;;;;;;;15.67;8.43;;;10.40;99.90;;;;;;5072798;28;20186;-66
2022/11/18 13:04:10;;;;;;;13.80;8.13;;;10.50;99.90;;;;;;5073373;28;20169;-66
2022/11/18 13:06:38;;;;;;;15.13;6.97;;;10.60;99.90;;;;;;5073848;28;20158;-66
2022/11/18 13:09:12;;;;;;;10.60;5.50;;;10.80;99.90;;;;;;5073229;28;20259;-66
2022/11/18 13:12:01;;;;;;;5.50;5.00;;;11.10;99.90;;;;;;5073066;28;20213;-66
2022/11/18 13:20:35;;;;;;;10.35;6.57;;;11.20;99.90;;;;;;5073770;28;20206;-66
2022/11/18 13:26:06;;;;;;;10.55;5.63;;;11.00;99.90;;;;;;5073429;28;20169;-66
2022/11/18 13:28:31;;;;;;;8.20;5.18;;;11.00;99.90;;;;;;5072931;28;20682;-66
2022/11/18 13:31:37;;;;;;;8.87;5.13;;;11.00;99.90;;;;;;5073118;28;20170;-66
2022/11/18 13:34:21;;;;;;;8.75;5.20;;;11.00;99.90;;;;;;5072582;28;20225;-66
2022/11/18 13:36:49;;;;;;;8.48;4.95;;;11.00;99.90;;;;;;5071778;28;20193;-66
2022/11/18 13:39:22;;;;;;;8.25;5.40;;;11.00;99.90;;;;;;5072950;28;20204;-66